createdAt,value
2022-09-12T00:00:17.183Z,14.03
2022-09-12T00:02:20.022Z,14.01
2022-09-12T00:04:21.661Z,13.91
2022-09-12T00:06:25.916Z,13.87
2022-09-12T00:08:27.376Z,13.82
2022-09-12T00:10:28.852Z,13.74
2022-09-12T00:12:30.360Z,13.72
2022-09-12T00:14:31.900Z,13.66
2022-09-12T00:16:35.741Z,13.61
2022-09-12T00:18:38.660Z,13.56
2022-09-12T00:20:41.645Z,13.47
2022-09-12T00:22:43.596Z,13.42
2022-09-12T00:24:45.240Z,13.39
2022-09-12T00:26:46.796Z,13.34
2022-09-12T00:28:48.376Z,13.34
2022-09-12T00:30:49.936Z,13.38
2022-09-12T00:32:51.409Z,13.32
2022-09-12T00:34:54.252Z,13.31
2022-09-12T00:36:55.726Z,13.30
2022-09-12T00:38:57.446Z,13.26
2022-09-12T00:40:58.951Z,13.21
2022-09-12T00:43:00.454Z,13.22
2022-09-12T00:45:01.945Z,13.22
2022-09-12T00:47:10.409Z,13.25
2022-09-12T00:49:15.691Z,13.22
2022-09-12T00:51:19.386Z,13.25
2022-09-12T00:53:21.141Z,13.20
2022-09-12T00:55:26.085Z,13.13
2022-09-12T00:57:31.783Z,13.08
2022-09-12T00:59:39.535Z,13.04
2022-09-12T01:01:42.834Z,13.05
2022-09-12T01:03:44.737Z,13.04
2022-09-12T01:05:52.584Z,13.03
2022-09-12T01:07:57.069Z,13.00
2022-09-12T01:09:58.540Z,13.03
2022-09-12T01:12:01.898Z,12.90
2022-09-12T01:14:03.383Z,12.88
2022-09-12T01:16:06.742Z,12.85
2022-09-12T01:18:16.899Z,12.81
2022-09-12T01:20:39.102Z,12.82
2022-09-12T01:23:00.770Z,12.82
2022-09-12T01:25:09.779Z,12.80
2022-09-12T01:27:47.681Z,12.73
2022-09-12T01:30:04.872Z,12.73
2022-09-12T01:32:13.045Z,12.68
2022-09-12T01:34:22.253Z,12.67
2022-09-12T01:36:42.301Z,12.62
2022-09-12T01:38:48.581Z,12.59
2022-09-12T01:40:58.861Z,12.58
2022-09-12T01:43:05.616Z,12.54
2022-09-12T01:45:11.500Z,12.53
2022-09-12T01:47:20.444Z,12.53
2022-09-12T01:49:24.274Z,12.50
2022-09-12T01:51:31.929Z,12.49
2022-09-12T01:53:35.127Z,12.49
2022-09-12T01:55:41.983Z,12.49
2022-09-12T01:57:49.355Z,12.41
2022-09-12T01:59:55.321Z,12.56
2022-09-12T02:02:03.333Z,12.63
2022-09-12T02:04:09.184Z,12.65
2022-09-12T02:06:18.407Z,12.64
2022-09-12T02:08:26.070Z,12.62
2022-09-12T02:10:32.495Z,12.54
2022-09-12T02:12:40.209Z,12.50
2022-09-12T02:14:45.966Z,12.53
2022-09-12T02:16:51.598Z,12.55
2022-09-12T02:18:57.624Z,12.45
2022-09-12T02:21:04.083Z,12.49
2022-09-12T02:23:12.114Z,12.44
2022-09-12T02:25:16.360Z,12.38
2022-09-12T02:27:22.293Z,12.36
2022-09-12T02:29:24.089Z,12.42
2022-09-12T02:31:30.157Z,12.47
2022-09-12T02:33:42.403Z,12.45
2022-09-12T02:35:49.199Z,12.39
2022-09-12T02:37:58.966Z,12.27
2022-09-12T02:40:01.217Z,12.27
2022-09-12T02:42:03.913Z,12.18
2022-09-12T02:44:05.792Z,12.20
2022-09-12T02:46:12.265Z,12.12
2022-09-12T02:48:18.539Z,12.20
2022-09-12T02:50:20.354Z,12.22
2022-09-12T02:52:21.817Z,12.22
2022-09-12T02:54:25.615Z,12.24
2022-09-12T02:56:30.125Z,12.25
2022-09-12T02:58:32.419Z,12.26
2022-09-12T03:00:41.955Z,12.22
2022-09-12T03:03:08.656Z,12.35
2022-09-12T03:05:22.616Z,12.31
2022-09-12T03:07:36.589Z,12.32
2022-09-12T03:09:46.105Z,12.37
2022-09-12T03:12:08.378Z,12.33
2022-09-12T03:14:22.154Z,12.26
2022-09-12T03:16:30.516Z,12.24
2022-09-12T03:18:45.968Z,12.22
2022-09-12T03:20:53.909Z,12.30
2022-09-12T03:22:59.126Z,12.29
2022-09-12T03:25:10.482Z,12.30
2022-09-12T03:27:16.133Z,12.26
2022-09-12T03:29:19.002Z,12.18
2022-09-12T03:31:20.483Z,12.19
2022-09-12T03:33:24.258Z,12.19
2022-09-12T03:35:25.721Z,12.15
2022-09-12T03:37:27.154Z,12.12
2022-09-12T03:39:28.482Z,12.13
2022-09-12T03:41:31.269Z,12.12
2022-09-12T03:43:32.752Z,12.02
2022-09-12T03:45:34.452Z,12.08
2022-09-12T03:47:36.224Z,11.99
2022-09-12T03:49:37.672Z,12.10
2022-09-12T03:51:39.746Z,12.09
2022-09-12T03:53:41.181Z,12.05
2022-09-12T03:55:42.472Z,12.03
2022-09-12T03:57:45.313Z,12.04
2022-09-12T03:59:48.460Z,12.04
2022-09-12T04:01:49.896Z,12.01
2022-09-12T04:03:52.740Z,12.01
2022-09-12T04:05:54.170Z,11.97
2022-09-12T04:07:55.443Z,11.94
2022-09-12T04:09:57.041Z,11.81
2022-09-12T04:11:58.609Z,11.76
2022-09-12T04:14:01.387Z,11.81
2022-09-12T04:16:03.501Z,11.82
2022-09-12T04:18:06.104Z,11.82
2022-09-12T04:20:08.398Z,11.81
2022-09-12T04:22:09.850Z,11.78
2022-09-12T04:24:11.245Z,11.80
2022-09-12T04:26:14.008Z,11.78
2022-09-12T04:28:15.487Z,11.76
2022-09-12T04:30:18.525Z,11.76
2022-09-12T04:32:20.065Z,11.79
2022-09-12T04:34:21.611Z,11.78
2022-09-12T04:36:23.252Z,11.66
2022-09-12T04:38:24.703Z,11.65
2022-09-12T04:40:26.147Z,11.64
2022-09-12T04:42:27.576Z,11.65
2022-09-12T04:44:28.845Z,11.60
2022-09-12T04:46:35.108Z,11.71
2022-09-12T04:48:36.915Z,11.76
2022-09-12T04:50:38.333Z,11.85
2022-09-12T04:52:39.619Z,11.79
2022-09-12T04:54:41.201Z,11.77
2022-09-12T04:56:45.630Z,11.77
2022-09-12T04:58:47.749Z,11.83
2022-09-12T05:00:49.325Z,12.11
2022-09-12T05:02:52.116Z,12.32
2022-09-12T05:04:53.596Z,12.52
2022-09-12T05:06:55.021Z,12.75
2022-09-12T05:08:56.617Z,12.69
2022-09-12T05:11:02.310Z,12.85
2022-09-12T05:13:03.755Z,12.66
2022-09-12T05:15:05.797Z,12.65
2022-09-12T05:17:07.287Z,12.82
2022-09-12T05:19:11.269Z,13.07
2022-09-12T05:21:14.803Z,13.22
2022-09-12T05:23:16.246Z,13.46
2022-09-12T05:25:17.700Z,13.58
2022-09-12T05:27:19.151Z,13.82
2022-09-12T05:29:20.711Z,14.04
2022-09-12T05:31:24.804Z,14.13
2022-09-12T05:33:26.213Z,14.17
2022-09-12T05:35:29.109Z,14.46
2022-09-12T05:37:30.588Z,14.53
2022-09-12T05:39:32.044Z,14.69
2022-09-12T05:41:34.743Z,14.66
2022-09-12T05:43:37.421Z,14.75
2022-09-12T05:45:38.980Z,14.86
2022-09-12T05:47:40.478Z,14.91
2022-09-12T05:49:41.919Z,15.01
2022-09-12T05:51:45.459Z,14.82
2022-09-12T05:53:48.717Z,15.01
2022-09-12T05:55:50.156Z,15.15
2022-09-12T05:57:51.685Z,15.23
2022-09-12T05:59:53.158Z,15.12
2022-09-12T06:01:54.619Z,15.09
2022-09-12T06:03:58.508Z,14.95
2022-09-12T06:06:02.827Z,14.88
2022-09-12T06:08:05.632Z,15.06
2022-09-12T06:10:07.430Z,14.91
2022-09-12T06:12:08.892Z,14.93
2022-09-12T06:14:12.722Z,15.07
2022-09-12T06:16:16.776Z,15.25
2022-09-12T06:18:18.245Z,15.15
2022-09-12T06:20:19.680Z,15.04
2022-09-12T06:22:21.147Z,15.14
2022-09-12T06:24:23.957Z,15.26
2022-09-12T06:26:25.496Z,15.13
2022-09-12T06:28:27.471Z,15.08
2022-09-12T06:30:29.012Z,15.05
2022-09-12T06:32:30.735Z,15.01
2022-09-12T06:34:32.154Z,15.04
2022-09-12T06:36:36.859Z,14.99
2022-09-12T06:38:38.996Z,15.13
2022-09-12T06:40:43.366Z,15.32
2022-09-12T06:42:44.848Z,15.23
2022-09-12T06:44:46.271Z,15.43
2022-09-12T06:46:48.213Z,15.60
2022-09-12T06:48:50.162Z,15.68
2022-09-12T06:50:58.439Z,15.69
2022-09-12T06:52:59.897Z,15.78
2022-09-12T06:55:01.343Z,15.86
2022-09-12T06:57:04.171Z,15.91
2022-09-12T06:59:05.691Z,15.79
2022-09-12T07:01:09.462Z,16.06
2022-09-12T07:03:10.966Z,16.26
2022-09-12T07:05:17.947Z,16.29
2022-09-12T07:07:22.198Z,16.24
2022-09-12T07:09:23.681Z,16.21
2022-09-12T07:11:28.002Z,16.32
2022-09-12T07:13:30.808Z,16.37
2022-09-12T07:15:34.758Z,16.50
2022-09-12T07:17:36.193Z,16.52
2022-09-12T07:19:37.757Z,16.70
2022-09-12T07:21:39.234Z,16.83
2022-09-12T07:23:41.373Z,16.83
2022-09-12T07:25:42.831Z,16.81
2022-09-12T07:27:47.131Z,16.77
2022-09-12T07:29:53.408Z,16.92
2022-09-12T07:31:54.896Z,16.96
2022-09-12T07:33:56.593Z,16.95
2022-09-12T07:36:01.207Z,16.77
2022-09-12T07:38:02.866Z,16.83
2022-09-12T07:40:04.905Z,17.19
2022-09-12T07:42:06.606Z,17.31
2022-09-12T07:44:08.298Z,17.57
2022-09-12T07:46:11.622Z,17.38
2022-09-12T07:48:13.118Z,17.35
2022-09-12T07:50:14.666Z,17.49
2022-09-12T07:52:16.103Z,17.59
2022-09-12T07:54:17.589Z,17.55
2022-09-12T07:56:19.831Z,17.42
2022-09-12T07:58:21.313Z,17.79
2022-09-12T08:00:22.785Z,17.91
2022-09-12T08:02:25.680Z,17.94
2022-09-12T08:04:27.166Z,17.92
2022-09-12T08:06:29.397Z,17.96
2022-09-12T08:08:30.899Z,17.92
2022-09-12T08:10:32.412Z,17.94
2022-09-12T08:12:33.946Z,17.59
2022-09-12T08:14:35.647Z,17.73
2022-09-12T08:16:37.778Z,17.82
2022-09-12T08:18:40.788Z,17.64
2022-09-12T08:20:42.242Z,17.87
2022-09-12T08:22:43.876Z,17.91
2022-09-12T08:24:45.281Z,17.97
2022-09-12T08:26:46.755Z,18.30
2022-09-12T08:28:48.290Z,18.25
2022-09-12T08:30:49.726Z,18.44
2022-09-12T08:32:51.198Z,18.48
2022-09-12T08:34:54.004Z,18.53
2022-09-12T08:36:55.465Z,18.45
2022-09-12T08:38:59.885Z,18.41
2022-09-12T08:41:09.405Z,18.30
2022-09-12T08:43:26.847Z,18.40
2022-09-12T08:45:34.905Z,18.55
2022-09-12T08:47:39.076Z,18.67
2022-09-12T08:49:50.304Z,18.82
2022-09-12T08:51:54.463Z,18.87
2022-09-12T08:53:57.702Z,18.81
2022-09-12T08:56:00.224Z,18.90
2022-09-12T08:58:07.408Z,18.98
2022-09-12T09:00:13.484Z,18.87
2022-09-12T09:02:39.700Z,18.73
2022-09-12T09:04:50.490Z,18.55
2022-09-12T09:07:16.872Z,18.44
2022-09-12T09:09:30.025Z,18.63
2022-09-12T09:11:48.914Z,18.23
2022-09-12T09:14:05.466Z,18.23
2022-09-12T09:16:14.528Z,18.48
2022-09-12T09:18:22.823Z,18.21
2022-09-12T09:20:33.229Z,18.38
2022-09-12T09:22:42.916Z,18.66
2022-09-12T09:24:48.795Z,18.99
2022-09-12T09:26:57.129Z,19.03
2022-09-12T09:29:03.157Z,19.25
2022-09-12T09:31:05.213Z,19.17
2022-09-12T09:33:15.444Z,19.13
2022-09-12T09:35:18.992Z,19.14
2022-09-12T09:37:28.391Z,19.17
2022-09-12T09:39:45.886Z,19.11
2022-09-12T09:41:56.564Z,18.98
2022-09-12T09:43:59.626Z,18.76
2022-09-12T09:46:01.195Z,18.55
2022-09-12T09:48:15.499Z,18.45
2022-09-12T09:50:17.470Z,18.40
2022-09-12T09:52:24.909Z,18.49
2022-09-12T09:54:29.542Z,18.72
2022-09-12T09:56:34.506Z,19.20
2022-09-12T09:58:36.945Z,19.44
2022-09-12T10:00:39.206Z,19.68
2022-09-12T10:02:40.766Z,19.90
2022-09-12T10:04:54.017Z,20.21
2022-09-12T10:06:58.545Z,20.38
2022-09-12T10:09:06.363Z,20.36
2022-09-12T10:11:19.051Z,20.38
2022-09-12T10:13:27.831Z,20.23
2022-09-12T10:15:29.358Z,20.09
2022-09-12T10:17:39.106Z,20.20
2022-09-12T10:19:40.665Z,20.29
2022-09-12T10:21:52.454Z,20.10
2022-09-12T10:24:01.191Z,20.30
2022-09-12T10:26:05.146Z,20.41
2022-09-12T10:28:24.071Z,20.20
2022-09-12T10:30:27.974Z,20.21
2022-09-12T10:32:33.970Z,20.34
2022-09-12T10:34:38.101Z,20.27
2022-09-12T10:36:40.058Z,20.21
2022-09-12T10:38:49.318Z,20.12
2022-09-12T10:40:57.642Z,20.05
2022-09-12T10:43:00.424Z,20.03
2022-09-12T10:45:01.876Z,19.85
2022-09-12T10:47:23.207Z,20.03
2022-09-12T10:49:27.907Z,19.91
2022-09-12T10:51:29.635Z,20.17
2022-09-12T10:53:39.680Z,20.30
2022-09-12T10:55:47.974Z,20.62
2022-09-12T10:57:59.959Z,20.71
2022-09-12T11:00:09.967Z,20.66
2022-09-12T11:02:20.048Z,20.31
2022-09-12T11:04:34.148Z,20.26
2022-09-12T11:06:40.331Z,20.13
2022-09-12T11:08:53.154Z,20.19
2022-09-12T11:10:59.616Z,20.17
2022-09-12T11:13:13.220Z,20.03
2022-09-12T11:15:32.500Z,20.10
2022-09-12T11:17:44.494Z,20.14
2022-09-12T11:20:02.461Z,20.37
2022-09-12T11:22:19.756Z,20.59
2022-09-12T11:24:39.477Z,20.61
2022-09-12T11:26:50.669Z,20.62
2022-09-12T11:29:03.929Z,20.64
2022-09-12T11:31:23.463Z,20.80
2022-09-12T11:33:39.656Z,20.67
2022-09-12T11:35:54.416Z,20.65
2022-09-12T11:38:22.437Z,20.64
2022-09-12T11:40:29.734Z,20.79
2022-09-12T11:42:36.820Z,20.77
2022-09-12T11:44:41.576Z,20.54
2022-09-12T11:46:45.230Z,20.43
2022-09-12T11:48:55.133Z,20.28
2022-09-12T11:50:58.017Z,20.18
2022-09-12T11:53:05.218Z,20.24
2022-09-12T11:55:15.779Z,20.40
2022-09-12T11:57:24.969Z,20.30
2022-09-12T11:59:35.207Z,20.32
2022-09-12T12:01:44.923Z,20.26
2022-09-12T12:03:49.970Z,20.37
2022-09-12T12:05:55.304Z,20.51
2022-09-12T12:08:00.199Z,20.57
2022-09-12T12:10:01.764Z,20.67
2022-09-12T12:12:07.720Z,20.44
2022-09-12T12:14:16.952Z,20.30
2022-09-12T12:16:23.244Z,20.35
2022-09-12T12:18:26.774Z,20.34
2022-09-12T12:20:28.906Z,20.38
2022-09-12T12:22:30.458Z,20.36
2022-09-12T12:24:33.408Z,20.19
2022-09-12T12:26:54.737Z,20.22
2022-09-12T12:28:58.944Z,20.26
2022-09-12T12:31:01.754Z,20.45
2022-09-12T12:33:27.170Z,20.60
2022-09-12T12:35:40.079Z,20.62
2022-09-12T12:37:50.845Z,20.48
2022-09-12T12:39:58.612Z,20.25
2022-09-12T12:42:00.456Z,20.01
2022-09-12T12:44:40.636Z,19.77
2022-09-12T12:47:13.736Z,19.79
2022-09-12T12:49:21.361Z,19.77
2022-09-12T12:51:39.962Z,19.79
2022-09-12T12:53:42.116Z,19.76
2022-09-12T12:55:50.255Z,19.67
2022-09-12T12:57:54.230Z,19.70
2022-09-12T13:00:00.339Z,19.76
2022-09-12T13:02:03.981Z,19.77
2022-09-12T13:04:14.026Z,19.81
2022-09-12T13:06:29.450Z,19.82
2022-09-12T13:08:33.311Z,19.77
2022-09-12T13:10:35.084Z,19.92
2022-09-12T13:12:45.767Z,19.88
2022-09-12T13:14:54.146Z,19.94
2022-09-12T13:16:59.082Z,19.88
2022-09-12T13:19:05.112Z,19.87
2022-09-12T13:21:10.130Z,19.98
2022-09-12T13:23:22.160Z,20.06
2022-09-12T13:25:30.349Z,20.25
2022-09-12T13:27:31.832Z,20.31
2022-09-12T13:29:34.651Z,20.31
2022-09-12T13:31:36.428Z,20.29
2022-09-12T13:33:42.282Z,20.31
2022-09-12T13:36:12.609Z,20.39
2022-09-12T13:38:23.324Z,20.59
2022-09-12T13:40:33.379Z,20.48
2022-09-12T13:42:41.800Z,20.44
2022-09-12T13:44:47.848Z,20.49
2022-09-12T13:46:50.859Z,20.64
2022-09-12T13:48:52.375Z,20.69
2022-09-12T13:50:56.519Z,20.65
2022-09-12T13:53:01.421Z,20.47
2022-09-12T13:55:07.825Z,20.30
2022-09-12T13:57:28.313Z,20.16
2022-09-12T13:59:38.189Z,20.16
2022-09-12T14:01:42.936Z,20.17
2022-09-12T14:03:50.007Z,20.27
2022-09-12T14:05:56.976Z,20.29
2022-09-12T14:08:01.391Z,20.19
2022-09-12T14:10:03.133Z,20.19
2022-09-12T14:12:09.842Z,20.18
2022-09-12T14:14:23.871Z,20.18
2022-09-12T14:16:25.382Z,20.07
2022-09-12T14:18:30.067Z,20.10
2022-09-12T14:20:35.896Z,20.07
2022-09-12T14:22:37.704Z,20.10
2022-09-12T14:24:39.659Z,20.01
2022-09-12T14:26:43.214Z,19.98
2022-09-12T14:28:46.384Z,19.95
2022-09-12T14:30:59.311Z,19.97
2022-09-12T14:33:16.654Z,20.00
2022-09-12T14:35:20.396Z,20.01
2022-09-12T14:37:21.846Z,20.07
2022-09-12T14:39:28.548Z,20.17
2022-09-12T14:41:33.051Z,20.18
2022-09-12T14:43:37.076Z,20.23
2022-09-12T14:45:38.643Z,20.14
2022-09-12T14:47:42.892Z,20.16
2022-09-12T14:49:44.632Z,20.10
2022-09-12T14:51:55.302Z,20.04
2022-09-12T14:53:56.924Z,19.98
2022-09-12T14:56:05.638Z,19.93
2022-09-12T14:58:14.670Z,19.87
2022-09-12T15:00:19.814Z,19.91
2022-09-12T15:02:25.418Z,19.94
2022-09-12T15:04:40.619Z,19.90
2022-09-12T15:06:42.099Z,19.78
2022-09-12T15:08:44.903Z,19.75
2022-09-12T15:10:46.805Z,19.71
2022-09-12T15:12:48.338Z,19.63
2022-09-12T15:14:49.794Z,19.60
2022-09-12T15:16:51.259Z,19.68
2022-09-12T15:18:52.739Z,19.64
2022-09-12T15:20:56.440Z,19.77
2022-09-12T15:22:58.191Z,19.70
2022-09-12T15:25:01.020Z,19.57
2022-09-12T15:27:02.520Z,19.57
2022-09-12T15:29:04.173Z,19.53
2022-09-12T15:31:11.188Z,19.49
2022-09-12T15:33:12.790Z,19.33
2022-09-12T15:35:16.630Z,19.25
2022-09-12T15:37:19.641Z,19.23
2022-09-12T15:39:21.176Z,19.21
2022-09-12T15:41:31.245Z,19.16
2022-09-12T15:43:32.714Z,19.16
2022-09-12T15:45:35.310Z,19.06
2022-09-12T15:47:36.862Z,19.02
2022-09-12T15:49:38.685Z,19.08
2022-09-12T15:51:40.189Z,18.98
2022-09-12T15:53:42.268Z,18.98
2022-09-12T15:55:44.557Z,19.04
2022-09-12T15:57:47.428Z,19.02
2022-09-12T15:59:48.907Z,19.07
2022-09-12T16:01:50.395Z,19.10
2022-09-12T16:03:51.975Z,19.17
2022-09-12T16:05:56.762Z,19.08
2022-09-12T16:07:58.291Z,19.02
2022-09-12T16:09:59.783Z,18.98
2022-09-12T16:12:01.802Z,18.96
2022-09-12T16:14:05.350Z,18.91
2022-09-12T16:16:07.728Z,18.82
2022-09-12T16:18:09.422Z,18.82
2022-09-12T16:20:11.819Z,18.77
2022-09-12T16:22:13.322Z,18.78
2022-09-12T16:24:14.905Z,18.80
2022-09-12T16:26:17.307Z,18.73
2022-09-12T16:28:19.027Z,18.70
2022-09-12T16:30:21.960Z,18.65
2022-09-12T16:32:23.533Z,18.63
2022-09-12T16:34:25.035Z,18.57
2022-09-12T16:36:26.641Z,18.66
2022-09-12T16:38:30.169Z,18.58
2022-09-12T16:40:31.675Z,18.56
2022-09-12T16:42:33.569Z,18.51
2022-09-12T16:44:35.213Z,18.45
2022-09-12T16:46:38.281Z,18.45
2022-09-12T16:48:42.711Z,18.43
2022-09-12T16:50:44.355Z,18.40
2022-09-12T16:52:46.557Z,18.37
2022-09-12T16:54:48.287Z,18.31
2022-09-12T16:56:49.788Z,18.29
2022-09-12T16:58:51.687Z,18.29
2022-09-12T17:01:00.348Z,18.23
2022-09-12T17:03:03.275Z,18.19
2022-09-12T17:05:05.620Z,18.18
2022-09-12T17:07:07.722Z,18.11
2022-09-12T17:09:09.481Z,18.07
2022-09-12T17:11:15.993Z,18.00
2022-09-12T17:13:17.484Z,17.94
2022-09-12T17:15:18.997Z,17.84
2022-09-12T17:17:20.650Z,17.81
2022-09-12T17:19:25.305Z,17.79
2022-09-12T17:21:26.848Z,17.74
2022-09-12T17:23:31.593Z,17.71
2022-09-12T17:25:33.667Z,17.64
2022-09-12T17:27:35.181Z,17.56
2022-09-12T17:29:36.671Z,17.55
2022-09-12T17:31:38.273Z,17.51
2022-09-12T17:33:40.269Z,17.46
2022-09-12T17:35:43.175Z,17.41
2022-09-12T17:37:44.722Z,17.38
2022-09-12T17:39:46.311Z,17.36
2022-09-12T17:41:47.851Z,17.35
2022-09-12T17:43:50.591Z,17.28
2022-09-12T17:45:55.902Z,17.25
2022-09-12T17:47:57.442Z,17.22
2022-09-12T17:50:20.727Z,17.17
2022-09-12T17:52:21.860Z,17.15
2022-09-12T17:54:23.321Z,17.10
2022-09-12T17:56:25.194Z,17.05
2022-09-12T17:58:26.693Z,17.03
2022-09-12T18:00:29.420Z,16.99
2022-09-12T18:02:33.181Z,16.95
2022-09-12T18:04:35.402Z,16.90
2022-09-12T18:06:37.429Z,16.87
2022-09-12T18:08:40.903Z,16.79
2022-09-12T18:10:42.457Z,16.73
2022-09-12T18:12:43.930Z,16.67
2022-09-12T18:14:45.564Z,16.66
2022-09-12T18:16:47.761Z,16.66
2022-09-12T18:18:49.277Z,16.61
2022-09-12T18:20:50.830Z,16.60
2022-09-12T18:22:52.308Z,16.57
2022-09-12T18:24:55.177Z,16.61
2022-09-12T18:26:56.723Z,16.58
2022-09-12T18:28:58.778Z,16.59
2022-09-12T18:31:00.409Z,16.57
2022-09-12T18:33:02.035Z,16.54
2022-09-12T18:35:03.751Z,16.55
2022-09-12T18:37:05.279Z,16.52
2022-09-12T18:39:07.029Z,16.53
2022-09-12T18:41:11.608Z,16.54
2022-09-12T18:43:13.173Z,16.50
2022-09-12T18:45:14.957Z,16.43
2022-09-12T18:47:16.618Z,16.36
2022-09-12T18:49:18.116Z,16.34
2022-09-12T18:51:20.687Z,16.30
2022-09-12T18:53:22.145Z,16.30
2022-09-12T18:55:23.865Z,16.27
2022-09-12T18:57:26.710Z,16.23
2022-09-12T18:59:28.180Z,16.20
2022-09-12T19:01:31.433Z,16.14
2022-09-12T19:03:33.051Z,16.10
2022-09-12T19:05:34.766Z,16.01
2022-09-12T19:07:36.265Z,15.93
2022-09-12T19:09:37.961Z,15.97
2022-09-12T19:11:41.617Z,15.99
2022-09-12T19:13:46.472Z,16.01
2022-09-12T19:15:48.083Z,15.95
2022-09-12T19:17:49.611Z,15.85
2022-09-12T19:19:51.074Z,15.77
2022-09-12T19:21:52.706Z,15.82
2022-09-12T19:23:56.946Z,15.79
2022-09-12T19:26:00.978Z,15.73
2022-09-12T19:28:02.736Z,15.68
2022-09-12T19:30:06.608Z,15.62
2022-09-12T19:32:08.129Z,15.57
2022-09-12T19:34:11.066Z,15.50
2022-09-12T19:36:34.049Z,15.46
2022-09-12T19:38:36.464Z,15.43
2022-09-12T19:40:38.105Z,15.43
2022-09-12T19:42:39.672Z,15.38
2022-09-12T19:44:41.163Z,15.33
2022-09-12T19:46:44.120Z,15.34
2022-09-12T19:48:45.812Z,15.32
2022-09-12T19:50:47.671Z,15.34
2022-09-12T19:52:49.182Z,15.26
2022-09-12T19:54:50.665Z,15.20
2022-09-12T19:56:52.165Z,15.22
2022-09-12T19:58:56.457Z,15.11
2022-09-12T20:01:08.766Z,15.09
2022-09-12T20:03:11.632Z,15.02
2022-09-12T20:05:13.183Z,14.97
2022-09-12T20:07:14.656Z,14.98
2022-09-12T20:09:16.208Z,14.99
2022-09-12T20:11:19.798Z,14.94
2022-09-12T20:13:21.345Z,14.92
2022-09-12T20:15:22.857Z,14.87
2022-09-12T20:17:24.422Z,14.88
2022-09-12T20:19:27.310Z,14.88
2022-09-12T20:21:30.224Z,14.91
2022-09-12T20:23:31.745Z,14.83
2022-09-12T20:25:33.265Z,14.85
2022-09-12T20:27:34.774Z,14.86
2022-09-12T20:29:36.299Z,14.77
2022-09-12T20:31:40.395Z,14.71
2022-09-12T20:33:42.498Z,14.77
2022-09-12T20:35:45.326Z,14.74
2022-09-12T20:37:46.865Z,14.68
2022-09-12T20:39:50.876Z,14.69
2022-09-12T20:41:52.698Z,14.66
2022-09-12T20:43:55.957Z,14.62
2022-09-12T20:45:57.597Z,14.59
2022-09-12T20:47:59.192Z,14.52
2022-09-12T20:50:00.687Z,14.47
2022-09-12T20:52:03.824Z,14.43
2022-09-12T20:54:07.030Z,14.36
2022-09-12T20:56:08.585Z,14.37
2022-09-12T20:58:10.067Z,14.36
2022-09-12T21:00:12.527Z,14.39
2022-09-12T21:02:15.325Z,14.34
2022-09-12T21:04:17.222Z,14.34
2022-09-12T21:06:19.285Z,14.31
2022-09-12T21:08:22.119Z,14.29
2022-09-12T21:10:23.596Z,14.25
2022-09-12T21:12:27.398Z,14.17
2022-09-12T21:14:28.912Z,14.25
2022-09-12T21:16:30.440Z,14.20
2022-09-12T21:18:32.837Z,14.15
2022-09-12T21:20:34.488Z,14.08
2022-09-12T21:22:36.065Z,14.14
2022-09-12T21:24:38.956Z,14.10
2022-09-12T21:26:40.521Z,14.07
2022-09-12T21:28:41.972Z,14.01
2022-09-12T21:30:43.731Z,13.96
2022-09-12T21:32:45.216Z,13.95
2022-09-12T21:34:46.727Z,13.93
2022-09-12T21:36:48.240Z,13.94
2022-09-12T21:38:49.713Z,13.92
2022-09-12T21:41:02.639Z,13.87
2022-09-12T21:43:04.218Z,13.91
2022-09-12T21:45:06.459Z,13.83
2022-09-12T21:47:07.939Z,13.85
2022-09-12T21:49:09.605Z,13.80
2022-09-12T21:51:11.161Z,13.80
2022-09-12T21:53:12.727Z,13.78
2022-09-12T21:55:14.508Z,13.81
2022-09-12T21:57:17.329Z,13.80
2022-09-12T21:59:18.868Z,13.80
2022-09-12T22:01:20.655Z,13.78
2022-09-12T22:03:22.263Z,13.79
2022-09-12T22:05:23.719Z,13.71
2022-09-12T22:07:25.330Z,13.68
2022-09-12T22:09:26.917Z,13.68
2022-09-12T22:11:28.371Z,13.68
2022-09-12T22:13:31.427Z,13.62
2022-09-12T22:15:41.223Z,13.65
2022-09-12T22:17:43.174Z,13.67
2022-09-12T22:19:44.645Z,13.72
2022-09-12T22:21:46.268Z,13.76
2022-09-12T22:23:47.860Z,13.69
2022-09-12T22:25:49.562Z,13.65
2022-09-12T22:27:58.342Z,13.69
2022-09-12T22:30:01.211Z,13.72
2022-09-12T22:32:03.473Z,13.65
2022-09-12T22:34:05.416Z,13.58
2022-09-12T22:36:08.378Z,13.55
2022-09-12T22:38:09.923Z,13.51
2022-09-12T22:40:11.593Z,13.48
2022-09-12T22:42:13.964Z,13.49
2022-09-12T22:44:15.532Z,13.48
2022-09-12T22:46:18.442Z,13.45
2022-09-12T22:48:20.000Z,13.45
2022-09-12T22:50:21.605Z,13.42
2022-09-12T22:52:23.169Z,13.44
2022-09-12T22:54:24.689Z,13.43
2022-09-12T22:56:26.823Z,13.42
2022-09-12T22:58:28.295Z,13.42
2022-09-12T23:00:29.915Z,13.37
2022-09-12T23:02:32.830Z,13.36
2022-09-12T23:04:34.427Z,13.33
2022-09-12T23:06:35.884Z,13.27
2022-09-12T23:08:38.518Z,13.27
2022-09-12T23:10:40.183Z,13.26
2022-09-12T23:12:41.619Z,13.19
2022-09-12T23:14:43.267Z,13.20
2022-09-12T23:16:44.953Z,13.18
2022-09-12T23:18:48.288Z,13.13
2022-09-12T23:20:56.722Z,13.12
2022-09-12T23:22:58.162Z,13.03
2022-09-12T23:24:59.576Z,13.01
2022-09-12T23:27:01.089Z,13.02
2022-09-12T23:29:03.548Z,13.03
2022-09-12T23:31:05.831Z,13.00
2022-09-12T23:33:07.350Z,13.04
2022-09-12T23:35:10.176Z,12.97
2022-09-12T23:37:11.602Z,12.93
2022-09-12T23:39:13.211Z,12.94
2022-09-12T23:41:15.570Z,12.96
2022-09-12T23:43:17.066Z,12.94
2022-09-12T23:45:18.557Z,12.98
2022-09-12T23:47:20.013Z,12.98
2022-09-12T23:49:21.461Z,12.86
2022-09-12T23:51:24.286Z,12.83
2022-09-12T23:53:26.157Z,12.89
2022-09-12T23:55:27.614Z,12.87
2022-09-12T23:57:29.115Z,12.88
2022-09-12T23:59:30.590Z,12.91
